createdAt,value
2023-09-14T00:02:07.113Z,2.80
2023-09-14T00:05:10.986Z,3.00
2023-09-14T00:08:13.843Z,3.08
2023-09-14T00:11:16.453Z,3.35
2023-09-14T00:14:22.668Z,3.13
2023-09-14T00:17:25.330Z,2.90
2023-09-14T00:20:35.466Z,3.00
2023-09-14T00:23:38.234Z,3.37
2023-09-14T00:26:40.884Z,2.90
2023-09-14T00:29:43.645Z,4.43
2023-09-14T00:32:48.710Z,3.10
2023-09-14T00:35:51.495Z,3.03
2023-09-14T00:38:54.090Z,3.20
2023-09-14T00:41:56.615Z,2.92
2023-09-14T00:45:02.308Z,4.03
2023-09-14T00:48:05.187Z,3.10
2023-09-14T00:51:08.104Z,3.75
2023-09-14T00:54:12.068Z,3.60
2023-09-14T00:57:18.597Z,3.28
2023-09-14T01:00:21.677Z,3.63
2023-09-14T01:03:25.904Z,6.62
2023-09-14T01:06:30.587Z,3.45
2023-09-14T01:09:34.265Z,3.62
2023-09-14T01:12:37.331Z,4.03
2023-09-14T01:15:43.258Z,4.17
2023-09-14T01:19:11.785Z,3.55
2023-09-14T01:22:17.283Z,3.35
2023-09-14T01:25:47.346Z,3.00
2023-09-14T01:28:50.319Z,4.32
2023-09-14T01:31:53.151Z,3.93
2023-09-14T01:34:56.069Z,3.35
2023-09-14T01:38:04.935Z,4.32
2023-09-14T01:41:08.305Z,3.58
2023-09-14T01:44:14.252Z,4.00
2023-09-14T01:47:18.133Z,4.67
2023-09-14T01:50:24.065Z,5.43
2023-09-14T01:53:29.501Z,3.33
2023-09-14T01:56:32.149Z,4.22
2023-09-14T01:59:34.736Z,3.95
2023-09-14T02:02:37.520Z,4.30
2023-09-14T02:05:41.448Z,4.05
2023-09-14T02:08:44.580Z,4.25
2023-09-14T02:11:47.604Z,3.50
2023-09-14T02:14:50.319Z,2.95
2023-09-14T02:17:55.913Z,3.67
2023-09-14T02:20:58.599Z,4.62
2023-09-14T02:24:01.849Z,4.07
2023-09-14T02:27:04.624Z,3.30
2023-09-14T02:30:08.171Z,3.67
2023-09-14T02:33:11.056Z,3.50
2023-09-14T02:36:13.782Z,4.12
2023-09-14T02:39:16.448Z,3.67
2023-09-14T02:42:19.120Z,4.15
2023-09-14T02:45:21.757Z,2.72
2023-09-14T02:48:24.512Z,3.53
2023-09-14T02:51:27.129Z,3.40
2023-09-14T02:54:29.732Z,3.00
2023-09-14T02:57:32.416Z,3.42
2023-09-14T03:00:41.094Z,3.10
2023-09-14T03:03:44.005Z,2.80
2023-09-14T03:06:46.738Z,3.67
2023-09-14T03:09:49.542Z,3.60
2023-09-14T03:12:52.390Z,4.85
2023-09-14T03:15:59.582Z,4.72
2023-09-14T03:19:02.309Z,6.37
2023-09-14T03:22:08.380Z,5.55
2023-09-14T03:25:11.170Z,4.40
2023-09-14T03:28:13.916Z,3.92
2023-09-14T03:31:16.771Z,4.20
2023-09-14T03:34:20.264Z,6.23
2023-09-14T03:37:25.862Z,4.68
2023-09-14T03:40:28.617Z,4.50
2023-09-14T03:43:31.308Z,5.30
2023-09-14T03:46:34.215Z,4.25
2023-09-14T03:49:37.027Z,3.93
2023-09-14T03:52:39.750Z,5.37
2023-09-14T03:55:43.269Z,3.10
2023-09-14T03:58:46.200Z,3.20
2023-09-14T04:01:49.379Z,3.30
2023-09-14T04:04:52.101Z,3.00
2023-09-14T04:07:55.715Z,3.37
2023-09-14T04:11:01.063Z,3.42
2023-09-14T04:14:03.976Z,4.35
2023-09-14T04:17:06.688Z,4.20
2023-09-14T04:20:12.181Z,4.67
2023-09-14T04:23:17.873Z,8.55
2023-09-14T04:26:21.020Z,4.18
2023-09-14T04:29:23.718Z,5.47
2023-09-14T04:32:26.632Z,4.25
2023-09-14T04:35:29.322Z,3.97
2023-09-14T04:38:33.901Z,4.37
2023-09-14T04:41:36.602Z,4.78
2023-09-14T04:44:39.321Z,5.28
2023-09-14T04:47:42.054Z,4.72
2023-09-14T04:50:45.006Z,3.60
2023-09-14T04:53:47.716Z,3.42
2023-09-14T04:56:50.623Z,3.60
2023-09-14T04:59:53.235Z,4.18
2023-09-14T05:02:55.859Z,2.92
2023-09-14T05:05:59.498Z,4.17
2023-09-14T05:09:02.219Z,4.45
2023-09-14T05:12:06.177Z,3.42
2023-09-14T05:15:09.507Z,3.03
2023-09-14T05:18:12.240Z,3.65
2023-09-14T05:21:15.046Z,7.67
2023-09-14T05:24:18.918Z,3.30
2023-09-14T05:27:21.737Z,3.97
2023-09-14T05:30:26.284Z,3.62
2023-09-14T05:33:29.097Z,3.47
2023-09-14T05:36:31.810Z,3.50
2023-09-14T05:39:34.534Z,4.72
2023-09-14T05:42:38.722Z,3.67
2023-09-14T05:45:42.969Z,3.37
2023-09-14T05:48:45.862Z,3.85
2023-09-14T05:51:49.584Z,4.57
2023-09-14T05:54:52.412Z,4.30
2023-09-14T05:57:55.711Z,4.45
2023-09-14T06:01:01.605Z,4.62
2023-09-14T06:04:04.649Z,3.67
2023-09-14T06:07:07.465Z,3.53
2023-09-14T06:10:10.426Z,3.80
2023-09-14T06:13:13.308Z,4.90
2023-09-14T06:16:15.991Z,5.15
2023-09-14T06:19:19.211Z,5.22
2023-09-14T06:22:22.121Z,5.40
2023-09-14T06:25:24.874Z,5.75
2023-09-14T06:28:27.653Z,5.62
2023-09-14T06:31:30.570Z,4.68
2023-09-14T06:34:37.161Z,5.62
2023-09-14T06:37:39.852Z,4.23
2023-09-14T06:40:42.559Z,4.35
2023-09-14T06:43:46.415Z,4.37
2023-09-14T06:46:49.418Z,4.55
2023-09-14T06:49:52.123Z,4.85
2023-09-14T06:52:54.901Z,4.80
2023-09-14T06:55:57.573Z,4.72
2023-09-14T06:59:00.391Z,3.90
2023-09-14T07:02:06.990Z,5.32
2023-09-14T07:05:13.062Z,3.95
2023-09-14T07:08:15.825Z,3.63
2023-09-14T07:11:18.600Z,3.90
2023-09-14T07:14:21.527Z,3.95
2023-09-14T07:17:24.228Z,3.92
2023-09-14T07:20:26.945Z,4.07
2023-09-14T07:23:31.762Z,3.33
2023-09-14T07:26:36.281Z,4.03
2023-09-14T07:29:39.059Z,4.05
2023-09-14T07:32:42.684Z,4.18
2023-09-14T07:35:48.452Z,3.53
2023-09-14T07:38:51.216Z,3.97
2023-09-14T07:41:57.299Z,4.43
2023-09-14T07:45:00.023Z,3.05
2023-09-14T07:48:05.087Z,4.03
2023-09-14T07:51:07.881Z,4.12
2023-09-14T07:54:10.614Z,4.30
2023-09-14T07:57:13.440Z,4.03
2023-09-14T08:00:16.495Z,5.55
2023-09-14T08:03:19.483Z,3.37
2023-09-14T08:06:25.135Z,3.65
2023-09-14T08:09:29.266Z,3.80
2023-09-14T08:12:32.371Z,3.50
2023-09-14T08:15:35.391Z,3.67
2023-09-14T08:18:38.377Z,3.53
2023-09-14T08:21:41.140Z,4.10
2023-09-14T08:24:44.220Z,3.70
2023-09-14T08:27:47.185Z,4.10
2023-09-14T08:30:50.414Z,3.78
2023-09-14T08:33:53.741Z,4.03
2023-09-14T08:36:56.949Z,3.45
2023-09-14T08:40:00.202Z,3.80
2023-09-14T08:43:03.929Z,3.20
2023-09-14T08:46:08.543Z,3.30
2023-09-14T08:49:11.704Z,3.45
2023-09-14T08:52:17.200Z,3.55
2023-09-14T08:55:21.803Z,3.70
2023-09-14T08:58:25.300Z,3.50
2023-09-14T09:01:28.210Z,3.45
2023-09-14T09:04:31.548Z,3.55
2023-09-14T09:07:34.867Z,3.30
2023-09-14T09:10:41.954Z,3.70
2023-09-14T09:13:47.670Z,3.87
2023-09-14T09:16:51.085Z,3.50
2023-09-14T09:19:55.542Z,3.58
2023-09-14T09:23:01.040Z,3.37
2023-09-14T09:26:03.971Z,3.20
2023-09-14T09:29:24.193Z,3.70
2023-09-14T09:32:27.546Z,3.70
2023-09-14T09:35:32.374Z,3.90
2023-09-14T09:38:41.396Z,3.72
2023-09-14T09:41:47.110Z,3.10
2023-09-14T09:44:50.181Z,3.40
2023-09-14T09:47:54.350Z,3.37
2023-09-14T09:50:57.180Z,3.20
2023-09-14T09:54:08.214Z,3.55
2023-09-14T09:57:11.043Z,3.70
2023-09-14T10:00:14.664Z,3.78
2023-09-14T10:03:19.015Z,3.67
2023-09-14T10:06:22.419Z,3.45
2023-09-14T10:09:29.733Z,3.42
2023-09-14T10:12:32.951Z,3.40
2023-09-14T10:15:37.395Z,4.03
2023-09-14T10:18:40.830Z,3.30
2023-09-14T10:21:45.974Z,3.65
2023-09-14T10:24:51.296Z,3.53
2023-09-14T10:27:55.346Z,4.00
2023-09-14T10:31:00.321Z,3.67
2023-09-14T10:34:05.022Z,3.87
2023-09-14T10:37:10.779Z,4.32
2023-09-14T10:40:15.396Z,3.92
2023-09-14T10:43:18.368Z,3.80
2023-09-14T10:46:34.456Z,3.87
2023-09-14T10:49:38.125Z,4.50
2023-09-14T10:52:42.897Z,4.20
2023-09-14T10:55:45.727Z,7.10
2023-09-14T10:58:54.870Z,4.40
2023-09-14T11:05:19.211Z,3.87
2023-09-14T11:08:23.263Z,4.20
2023-09-14T11:11:43.176Z,4.43
2023-09-14T11:15:12.443Z,3.73
2023-09-14T11:18:19.016Z,4.00
2023-09-14T11:21:52.186Z,4.07
2023-09-14T11:24:56.460Z,4.12
2023-09-14T11:28:00.578Z,3.65
2023-09-14T11:31:03.796Z,3.73
2023-09-14T11:34:19.584Z,4.10
2023-09-14T11:37:24.876Z,4.05
2023-09-14T11:40:35.701Z,4.00
2023-09-14T11:44:33.087Z,4.28
2023-09-14T11:47:34.323Z,4.27
2023-09-14T11:50:42.945Z,3.87
2023-09-14T11:53:46.395Z,3.97
2023-09-14T11:56:50.457Z,4.12
2023-09-14T11:59:53.598Z,7.00
2023-09-14T12:02:56.313Z,4.13
2023-09-14T12:06:01.389Z,4.37
2023-09-14T12:09:06.930Z,3.75
2023-09-14T12:12:26.688Z,4.40
2023-09-14T12:15:31.456Z,4.05
2023-09-14T12:18:41.880Z,4.40
2023-09-14T12:21:45.080Z,4.40
2023-09-14T12:24:52.183Z,4.50
2023-09-14T12:27:55.351Z,4.60
2023-09-14T12:30:58.330Z,4.85
2023-09-14T12:34:01.620Z,5.80
2023-09-14T12:37:04.994Z,5.70
2023-09-14T12:40:11.764Z,5.37
2023-09-14T12:43:17.817Z,5.05
2023-09-14T12:46:22.482Z,5.30
2023-09-14T12:49:25.338Z,5.30
2023-09-14T12:52:28.964Z,5.53
2023-09-14T12:55:31.719Z,5.30
2023-09-14T12:58:34.932Z,5.53
2023-09-14T13:01:40.775Z,5.28
2023-09-14T13:04:44.183Z,5.50
2023-09-14T13:07:52.539Z,5.50
2023-09-14T13:10:57.803Z,6.07
2023-09-14T13:14:00.759Z,5.15
2023-09-14T13:17:03.596Z,5.43
2023-09-14T13:20:10.999Z,6.90
2023-09-14T13:23:13.922Z,5.18
2023-09-14T13:26:16.850Z,4.75
2023-09-14T13:29:22.657Z,5.40
2023-09-14T13:32:25.432Z,5.53
2023-09-14T13:35:30.165Z,5.40
2023-09-14T13:38:32.970Z,5.20
2023-09-14T13:41:36.135Z,5.35
2023-09-14T13:44:39.263Z,6.00
2023-09-14T13:47:43.260Z,5.30
2023-09-14T13:50:46.334Z,5.50
2023-09-14T13:53:49.198Z,5.47
2023-09-14T13:56:51.938Z,5.25
2023-09-14T13:59:54.731Z,5.75
2023-09-14T14:03:10.477Z,5.50
2023-09-14T14:06:13.608Z,5.60
2023-09-14T14:09:18.841Z,5.43
2023-09-14T14:12:21.707Z,5.43
2023-09-14T14:15:25.472Z,5.60
2023-09-14T14:18:28.927Z,5.40
2023-09-14T14:21:31.742Z,5.63
2023-09-14T14:24:34.641Z,5.70
2023-09-14T14:27:43.079Z,5.70
2023-09-14T14:30:45.900Z,5.57
2023-09-14T14:33:48.660Z,5.55
2023-09-14T14:36:51.547Z,5.37
2023-09-14T14:39:54.329Z,5.20
2023-09-14T14:42:57.149Z,5.53
2023-09-14T14:46:01.603Z,5.60
2023-09-14T14:49:04.827Z,5.40
2023-09-14T14:52:07.639Z,6.03
2023-09-14T14:55:10.391Z,5.15
2023-09-14T14:58:13.171Z,5.32
2023-09-14T15:01:17.042Z,5.20
2023-09-14T15:04:19.959Z,5.15
2023-09-14T15:07:22.685Z,5.57
2023-09-14T15:10:25.402Z,5.30
2023-09-14T15:13:31.294Z,5.28
2023-09-14T15:16:34.446Z,5.57
2023-09-14T15:19:37.380Z,5.00
2023-09-14T15:22:40.078Z,5.10
2023-09-14T15:25:42.885Z,5.40
2023-09-14T15:28:50.592Z,5.35
2023-09-14T15:31:53.405Z,5.32
2023-09-14T15:34:56.258Z,7.55
2023-09-14T15:37:59.126Z,4.90
2023-09-14T15:41:01.827Z,4.90
2023-09-14T15:44:05.850Z,5.20
2023-09-14T15:47:08.985Z,4.90
2023-09-14T15:50:11.713Z,5.30
2023-09-14T15:53:14.480Z,5.40
2023-09-14T15:56:17.744Z,4.78
2023-09-14T15:59:20.941Z,4.60
2023-09-14T16:02:23.768Z,4.70
2023-09-14T16:05:26.526Z,4.15
2023-09-14T16:08:29.750Z,4.53
2023-09-14T16:11:32.790Z,4.87
2023-09-14T16:14:35.600Z,4.57
2023-09-14T16:17:38.573Z,4.30
2023-09-14T16:20:43.014Z,4.57
2023-09-14T16:23:45.711Z,4.20
2023-09-14T16:26:51.327Z,4.20
2023-09-14T16:29:54.108Z,4.20
2023-09-14T16:32:57.960Z,4.10
2023-09-14T16:36:00.719Z,3.92
2023-09-14T16:39:08.162Z,4.20
2023-09-14T16:42:10.916Z,4.10
2023-09-14T16:45:13.902Z,4.62
2023-09-14T16:48:16.649Z,4.30
2023-09-14T16:51:19.657Z,4.22
2023-09-14T16:54:24.050Z,4.13
2023-09-14T16:57:26.848Z,4.15
2023-09-14T17:00:29.904Z,4.15
2023-09-14T17:03:32.677Z,4.00
2023-09-14T17:06:35.753Z,4.00
2023-09-14T17:09:38.518Z,4.00
2023-09-14T17:12:41.600Z,4.00
2023-09-14T17:15:44.417Z,3.67
2023-09-14T17:18:48.562Z,3.67
2023-09-14T17:21:51.737Z,3.60
2023-09-14T17:24:54.671Z,4.50
2023-09-14T17:27:57.486Z,3.75
2023-09-14T17:31:00.541Z,3.78
2023-09-14T17:34:04.861Z,3.62
2023-09-14T17:37:07.669Z,3.50
2023-09-14T17:40:10.848Z,3.60
2023-09-14T17:43:16.440Z,3.55
2023-09-14T17:46:20.193Z,3.45
2023-09-14T17:49:23.176Z,3.55
2023-09-14T17:52:26.513Z,3.40
2023-09-14T17:55:30.290Z,3.40
2023-09-14T17:58:33.108Z,3.15
2023-09-14T18:01:35.934Z,4.12
2023-09-14T18:04:38.759Z,3.12
2023-09-14T18:07:42.794Z,3.17
2023-09-14T18:10:45.607Z,3.50
2023-09-14T18:13:49.162Z,3.55
2023-09-14T18:16:51.994Z,3.12
2023-09-14T18:19:54.880Z,3.50
2023-09-14T18:22:57.630Z,3.22
2023-09-14T18:26:00.774Z,4.07
2023-09-14T18:29:04.782Z,3.10
2023-09-14T18:32:07.848Z,3.10
2023-09-14T18:35:10.845Z,3.25
2023-09-14T18:38:13.746Z,3.50
2023-09-14T18:41:18.022Z,3.73
2023-09-14T18:44:21.607Z,3.22
2023-09-14T18:47:24.417Z,3.30
2023-09-14T18:50:27.694Z,3.22
2023-09-14T18:53:32.165Z,3.50
2023-09-14T18:56:35.222Z,3.07
2023-09-14T18:59:38.081Z,3.22
2023-09-14T19:02:42.400Z,4.18
2023-09-14T19:05:46.936Z,3.25
2023-09-14T19:08:52.834Z,3.15
2023-09-14T19:11:57.465Z,3.43
2023-09-14T19:15:00.958Z,3.45
2023-09-14T19:18:07.287Z,3.10
2023-09-14T19:21:10.909Z,3.05
2023-09-14T19:24:13.773Z,3.22
2023-09-14T19:27:16.630Z,3.40
2023-09-14T19:30:19.621Z,3.05
2023-09-14T19:33:22.334Z,3.08
2023-09-14T19:36:26.456Z,3.75
2023-09-14T19:39:29.180Z,5.10
2023-09-14T19:42:31.885Z,3.20
2023-09-14T19:45:39.014Z,3.53
2023-09-14T19:48:45.639Z,3.05
2023-09-14T19:51:49.074Z,3.40
2023-09-14T19:54:51.989Z,3.45
2023-09-14T19:57:54.655Z,2.83
2023-09-14T20:00:59.476Z,2.80
2023-09-14T20:04:03.188Z,2.97
2023-09-14T20:07:06.049Z,2.97
2023-09-14T20:10:09.273Z,2.97
2023-09-14T20:13:12.096Z,2.87
2023-09-14T20:16:15.196Z,2.97
2023-09-14T20:19:18.120Z,4.28
2023-09-14T20:22:20.901Z,3.17
2023-09-14T20:25:26.498Z,3.00
2023-09-14T20:28:29.192Z,2.80
2023-09-14T20:31:32.014Z,3.42
2023-09-14T20:34:35.439Z,3.05
2023-09-14T20:37:38.487Z,3.00
2023-09-14T20:40:41.322Z,3.45
2023-09-14T20:43:44.020Z,3.00
2023-09-14T20:46:46.799Z,3.33
2023-09-14T20:49:50.416Z,3.62
2023-09-14T20:52:54.838Z,3.12
2023-09-14T20:55:58.846Z,2.70
2023-09-14T20:59:01.566Z,2.90
2023-09-14T21:02:04.903Z,2.70
2023-09-14T21:05:09.558Z,2.80
2023-09-14T21:08:12.302Z,2.58
2023-09-14T21:11:15.081Z,3.00
2023-09-14T21:14:28.364Z,3.07
2023-09-14T21:17:31.108Z,2.50
2023-09-14T21:20:33.877Z,2.50
2023-09-14T21:23:37.788Z,2.70
2023-09-14T21:26:42.570Z,2.80
2023-09-14T21:29:45.634Z,2.50
2023-09-14T21:32:48.300Z,2.53
2023-09-14T21:35:55.802Z,2.75
2023-09-14T21:38:58.582Z,2.60
2023-09-14T21:42:01.300Z,2.62
2023-09-14T21:45:04.142Z,2.93
2023-09-14T21:48:07.041Z,2.78
2023-09-14T21:51:09.786Z,2.70
2023-09-14T21:54:12.547Z,2.90
2023-09-14T21:57:18.371Z,2.30
2023-09-14T22:00:25.797Z,2.50
2023-09-14T22:03:44.947Z,2.60
2023-09-14T22:06:52.763Z,2.60
2023-09-14T22:09:58.650Z,2.58
2023-09-14T22:13:01.356Z,2.33
2023-09-14T22:16:04.146Z,2.27
2023-09-14T22:19:07.000Z,2.70
2023-09-14T22:22:10.058Z,2.95
2023-09-14T22:25:12.947Z,2.62
2023-09-14T22:28:19.204Z,2.33
2023-09-14T22:31:22.035Z,3.70
2023-09-14T22:34:27.908Z,2.25
2023-09-14T22:37:39.957Z,3.15
2023-09-14T22:40:48.940Z,2.65
2023-09-14T22:43:51.640Z,2.42
2023-09-14T22:46:54.568Z,3.17
2023-09-14T22:49:57.306Z,2.45
2023-09-14T22:53:00.032Z,2.58
2023-09-14T22:56:02.911Z,2.80
2023-09-14T22:59:08.754Z,2.57
2023-09-14T23:02:11.385Z,2.50
2023-09-14T23:05:17.096Z,5.35
2023-09-14T23:08:21.946Z,2.60
2023-09-14T23:11:41.487Z,4.57
2023-09-14T23:14:44.160Z,2.65
2023-09-14T23:17:47.097Z,3.23
2023-09-14T23:20:50.214Z,2.58
2023-09-14T23:23:52.918Z,2.50
2023-09-14T23:26:56.339Z,2.20
2023-09-14T23:29:59.501Z,2.40
2023-09-14T23:33:03.671Z,2.60
2023-09-14T23:36:12.790Z,2.28
2023-09-14T23:39:15.907Z,2.20
2023-09-14T23:42:18.705Z,2.30
2023-09-14T23:45:25.731Z,2.20
2023-09-14T23:48:28.772Z,3.13
2023-09-14T23:51:31.611Z,2.60
2023-09-14T23:54:37.437Z,2.30
2023-09-14T23:57:40.844Z,2.40
